Thalia — FPCS — position and weather

sailwx.info

Track history (hours):
 
Tides and Currents Weather Stations Pressure Air Temp Water Temp Dewpoint Dewpoint Depression Visibility Wind Speed Wind Dir Waves Ship Positions

Oceanographic research ship Thalia (France)

Detailed information on ship capabilities available from University of Delaware's Ocean Information Center.

Last reported at 2019-Feb-23 16:29 UTC. Time now 2019-Feb-23 16:41 UTC.
Position N 48°23' W 004°29'.

Length 25 m; beam 7 m.

Type: Fishing. MMSI: 227270000.

Date/timePositionNaut miles runAvg speedWind from/ knotsBaromVisibWave heightAir tempDewpointWater temp
2019-Feb-23 16:29N 48°23' W 004°29'0 0.0
2019-Feb-23 15:59N 48°23' W 004°29'0 0.0
2019-Feb-23 15:29N 48°23' W 004°29'0 0.0
2019-Feb-23 14:59N 48°23' W 004°29'0 0.0
2019-Feb-23 14:29N 48°23' W 004°29'0 0.0
2019-Feb-23 13:59N 48°23' W 004°29'0 0.0
2019-Feb-23 13:29N 48°23' W 004°29'0 0.0
2019-Feb-23 12:59N 48°23' W 004°29'0 0.0
2019-Feb-23 12:29N 48°23' W 004°29'0 0.0
2019-Feb-23 11:59N 48°23' W 004°29'0 0.0
2019-Feb-23 11:29N 48°23' W 004°29'0 0.0
2019-Feb-23 10:59N 48°23' W 004°29'0 0.0
2019-Feb-23 10:29N 48°23' W 004°29'0 0.0
2019-Feb-23 09:59N 48°23' W 004°29'0 0.0
2019-Feb-23 09:29N 48°23' W 004°29'0 0.0
2019-Feb-23 08:59N 48°23' W 004°29'0 0.0
2019-Feb-23 08:29N 48°23' W 004°29'0 0.0
2019-Feb-23 07:59N 48°23' W 004°29'0 0.0
2019-Feb-23 07:29N 48°23' W 004°29'0 0.0
2019-Feb-23 06:59N 48°23' W 004°29'0 0.0
2019-Feb-23 06:29N 48°23' W 004°29'0 0.0
2019-Feb-23 05:59N 48°23' W 004°29'0 0.0
2019-Feb-23 05:29N 48°23' W 004°29'0 0.0
2019-Feb-23 04:59N 48°23' W 004°29'0 0.0
2019-Feb-23 04:29N 48°23' W 004°29'0 0.0
2019-Feb-23 03:59N 48°23' W 004°29'0 0.0
2019-Feb-23 03:29N 48°23' W 004°29'0 0.0
2019-Feb-23 02:59N 48°23' W 004°29'0 0.0
2019-Feb-23 02:29N 48°23' W 004°29'0 0.0
2019-Feb-23 01:59N 48°23' W 004°29'0 0.0
2019-Feb-23 01:29N 48°23' W 004°29'0 0.0
2019-Feb-23 00:59N 48°23' W 004°29'0 0.0
2019-Feb-23 00:29N 48°23' W 004°29'0 0.0
2019-Feb-22 23:59N 48°23' W 004°29'0 0.0
2019-Feb-22 23:29N 48°23' W 004°29'0 0.0
2019-Feb-22 22:59N 48°23' W 004°29'0 0.0
2019-Feb-22 22:29N 48°23' W 004°29'0 0.0
2019-Feb-22 21:59N 48°23' W 004°29'0 0.0
2019-Feb-22 21:29N 48°23' W 004°29'0 0.0
2019-Feb-22 20:59N 48°23' W 004°29'0 0.0
2019-Feb-22 20:29N 48°23' W 004°29'0 0.0
2019-Feb-22 19:59N 48°23' W 004°29'0 0.0
2019-Feb-22 19:29N 48°23' W 004°29'0 0.0
2019-Feb-22 18:59N 48°23' W 004°29'0 0.0
2019-Feb-22 18:29N 48°23' W 004°29'0 0.0
2019-Feb-22 17:59N 48°23' W 004°29'0 0.0
2019-Feb-22 17:29N 48°23' W 004°29'0 0.0
2019-Feb-22 16:59N 48°23' W 004°29'0 0.0
2019-Feb-22 16:29N 48°23' W 004°29'0 0.0
2019-Feb-22 15:59N 48°23' W 004°29'0 0.0
2019-Feb-22 15:29N 48°23' W 004°29'0 0.0
2019-Feb-22 14:59N 48°23' W 004°29'0 0.0
2019-Feb-22 14:29N 48°23' W 004°29'0 0.0
2019-Feb-22 13:59N 48°23' W 004°29'0 0.4
2019-Feb-22 13:31N 48°23' W 004°29'4 8.8
2019-Feb-22 13:00N 48°20' W 004°34'2 4.4
2019-Feb-22 12:30N 48°18' W 004°35'1 1.3
2019-Feb-22 12:00N 48°17' W 004°36'4 8.6
2019-Feb-22 11:30N 48°18' W 004°42'4 8.8
2019-Feb-22 11:00N 48°20' W 004°48'4 7.7
2019-Feb-22 10:31N 48°23' W 004°51'1 1.2
2019-Feb-22 10:01N 48°23' W 004°50'3 5.8
2019-Feb-22 09:31N 48°21' W 004°49'3 6.3
2019-Feb-22 09:00N 48°19' W 004°45'511.0
2019-Feb-22 08:31N 48°20' W 004°37'611.5
2019-Feb-22 08:00N 48°20' W 004°28'1 1.3
2019-Feb-22 07:30N 48°20' W 004°27'3 5.4
2019-Feb-22 07:00N 48°22' W 004°29'1 1.2
2019-Feb-22 06:30N 48°23' W 004°29'0 0.0
2019-Feb-22 06:00N 48°23' W 004°29'0 0.0
2019-Feb-22 05:30N 48°23' W 004°29'0 0.0
2019-Feb-22 05:00N 48°23' W 004°29'0 0.0
2019-Feb-22 04:30N 48°23' W 004°29'0 0.0
2019-Feb-22 04:00N 48°23' W 004°29'0 0.0
2019-Feb-22 03:30N 48°23' W 004°29'0 0.0
2019-Feb-22 03:00N 48°23' W 004°29'0 0.0
2019-Feb-22 02:30N 48°23' W 004°29'0 0.0
2019-Feb-22 02:00N 48°23' W 004°29'0 0.0
2019-Feb-22 01:30N 48°23' W 004°29'0 0.0
2019-Feb-22 01:00N 48°23' W 004°29'0 0.0
2019-Feb-22 00:30N 48°23' W 004°29'0 0.0
2019-Feb-22 00:00N 48°23' W 004°29'0 0.0
2019-Feb-21 23:30N 48°23' W 004°29'0 0.0
2019-Feb-21 23:00N 48°23' W 004°29'0 0.0
2019-Feb-21 22:30N 48°23' W 004°29'0 0.0
2019-Feb-21 22:00N 48°23' W 004°29'0 0.0
2019-Feb-21 21:30N 48°23' W 004°29'0 0.0
2019-Feb-21 21:00N 48°23' W 004°29'0 0.0
2019-Feb-21 20:30N 48°23' W 004°29'0 0.0
2019-Feb-21 20:00N 48°23' W 004°29'0 0.0
2019-Feb-21 19:30N 48°23' W 004°29'0 0.0
2019-Feb-21 19:00N 48°23' W 004°29'0 0.0
2019-Feb-21 18:30N 48°23' W 004°29'0 0.0
2019-Feb-21 18:00N 48°23' W 004°29'0 0.0
2019-Feb-21 17:30N 48°23' W 004°29'1 1.1
2019-Feb-21 17:01N 48°22' W 004°29'2 4.4
2019-Feb-21 16:30N 48°22' W 004°26'1 2.5
2019-Feb-21 16:01N 48°21' W 004°27'2 5.0
2019-Feb-21 15:31N 48°19' W 004°25'2 4.2
2019-Feb-21 15:01N 48°19' W 004°22'2 4.7
2019-Feb-21 14:31N 48°19' W 004°26'510.8
2019-Feb-21 14:01N 48°20' W 004°33'611.7
2019-Feb-21 13:30N 48°18' W 004°41'510.0
2019-Feb-21 13:00N 48°17' W 004°48'4 7.3
2019-Feb-21 12:31N 48°16' W 004°54'0 0.0
2019-Feb-21 12:01N 48°16' W 004°54'0 0.2
2019-Feb-21 11:30N 48°15' W 004°54'1 1.5
2019-Feb-21 11:00N 48°15' W 004°53'5 9.7
2019-Feb-21 10:30N 48°13' W 004°46'510.0
2019-Feb-21 10:00N 48°11' W 004°39'510.0
2019-Feb-21 09:30N 48°10' W 004°32'3 6.8
2019-Feb-21 09:01N 48°13' W 004°30'1 1.4
2019-Feb-21 08:30N 48°13' W 004°29'5 9.9
2019-Feb-21 08:00N 48°09' W 004°23'2 4.8
2019-Feb-21 07:30N 48°08' W 004°20'1 2.9
2019-Feb-21 07:00N 48°09' W 004°18'0 0.6
2019-Feb-21 06:31N 48°09' W 004°18'1 1.2
2019-Feb-21 06:00N 48°09' W 004°19'0 0.6
2019-Feb-21 05:30N 48°09' W 004°19'0 0.3
2019-Feb-21 05:00N 48°08' W 004°18'2 4.2
2019-Feb-21 04:30N 48°08' W 004°21'3 5.3
2019-Feb-21 04:00N 48°08' W 004°25'3 5.5
2019-Feb-21 03:31N 48°07' W 004°29'3 6.3
2019-Feb-21 03:01N 48°07' W 004°34'3 6.9
2019-Feb-21 02:30N 48°06' W 004°39'3 6.6
2019-Feb-21 02:01N 48°05' W 004°44'4 8.2
2019-Feb-21 01:30N 48°01' W 004°45'611.2
2019-Feb-21 01:01N 47°57' W 004°39'510.4
2019-Feb-21 00:30N 47°53' W 004°34'510.4
2019-Feb-20 23:58N 47°49' W 004°28'1110.4
2019-Feb-20 22:58N 47°43' W 004°15'10 9.9
2019-Feb-20 21:58N 47°38' W 004°02'710.2
2019-Feb-20 21:20N 47°39' W 003°52'4 9.9
2019-Feb-20 20:55N 47°39' W 003°46'4 9.7
2019-Feb-20 20:31N 47°40' W 003°41'510.0
2019-Feb-20 20:01N 47°40' W 003°33'510.6
2019-Feb-20 19:30N 47°40' W 003°25'510.3
2019-Feb-20 19:01N 47°39' W 003°18'1 1.2
2019-Feb-20 18:31N 47°39' W 003°17'0 0.4
2019-Feb-20 18:01N 47°39' W 003°17'5 9.2
2019-Feb-20 17:30N 47°34' W 003°15'5 9.8
2019-Feb-20 17:01N 47°30' W 003°13'5 9.7
2019-Feb-20 16:31N 47°25' W 003°11'5 9.9
2019-Feb-20 16:01N 47°20' W 003°08'0 0.9
2019-Feb-20 15:31N 47°20' W 003°08'4 7.6
2019-Feb-20 15:01N 47°23' W 003°06'5 9.5
2019-Feb-20 14:30N 47°28' W 003°03'1 2.3
2019-Feb-20 14:01N 47°29' W 003°03'2 3.7
2019-Feb-20 13:30N 47°30' W 003°02'4 8.0
2019-Feb-20 13:01N 47°32' W 002°56'0 0.6
2019-Feb-20 12:31N 47°31' W 002°56'4 7.7
2019-Feb-20 12:01N 47°28' W 002°54'4 7.6
2019-Feb-20 11:30N 47°24' W 002°51'0 0.1
2019-Feb-20 11:00N 47°24' W 002°51'1 2.0
2019-Feb-20 10:31N 47°24' W 002°49'3 5.3
2019-Feb-20 10:01N 47°24' W 002°45'3 6.4
2019-Feb-20 09:30N 47°23' W 002°41'3 5.2
2019-Feb-20 08:55N 47°22' W 002°36'1 1.5
2019-Feb-20 08:30N 47°23' W 002°37'2 4.3
2019-Feb-20 08:01N 47°24' W 002°35'4 7.9
2019-Feb-20 07:30N 47°28' W 002°33'0 0.8
2019-Feb-20 07:00N 47°29' W 002°33'0 0.9
2019-Feb-20 06:31N 47°28' W 002°34'2 4.3
2019-Feb-20 06:00N 47°27' W 002°36'2 4.9
2019-Feb-20 05:31N 47°25' W 002°39'3 5.5
2019-Feb-20 05:00N 47°23' W 002°42'3 5.8
2019-Feb-20 04:30N 47°21' W 002°44'3 5.6
2019-Feb-20 03:59N 47°19' W 002°47'6 6.1
2019-Feb-20 03:01N 47°19' W 002°56'1 2.9
2019-Feb-20 02:31N 47°19' W 002°58'2 3.5
2019-Feb-20 02:00N 47°20' W 002°60'3 5.2
2019-Feb-20 01:30N 47°22' W 003°03'3 5.2
2019-Feb-20 01:00N 47°23' W 003°06'3 5.1
2019-Feb-20 00:31N 47°24' W 003°10'2 4.8
2019-Feb-20 00:01N 47°25' W 003°13'2 4.3
2019-Feb-19 23:30N 47°26' W 003°15'2 3.9
2019-Feb-19 23:01N 47°27' W 003°18'2 4.2
2019-Feb-19 22:31N 47°29' W 003°21'2 3.8
2019-Feb-19 22:00N 47°30' W 003°23'2 4.2
2019-Feb-19 21:30N 47°31' W 003°25'2 4.3
2019-Feb-19 21:01N 47°32' W 003°28'2 4.1
2019-Feb-19 20:30N 47°33' W 003°30'2 4.1
2019-Feb-19 20:00N 47°35' W 003°33'2 4.4
2019-Feb-19 19:30N 47°36' W 003°36'2 4.5
2019-Feb-19 19:01N 47°37' W 003°38'2 4.4
2019-Feb-19 18:30N 47°39' W 003°41'2 4.5
2019-Feb-19 18:00N 47°40' W 003°43'2 4.6
2019-Feb-19 17:31N 47°41' W 003°46'3 5.6
2019-Feb-19 17:00N 47°43' W 003°50'6 5.5
2019-Feb-19 15:58N 47°44' W 003°58'1 2.6
2019-Feb-19 15:29N 47°44' W 003°60'1 1.0
2019-Feb-19 14:58N 47°44' W 004°01'3 6.4
2019-Feb-19 14:29N 47°46' W 003°57'3 6.3
2019-Feb-19 14:01N 47°47' W 003°53'0 0.4
2019-Feb-19 13:30N 47°48' W 003°53'3 4.6
2019-Feb-19 12:45N 47°49' W 003°58'0 0.6
2019-Feb-19 12:30N 47°49' W 003°57'1 1.0
2019-Feb-19 11:59N 47°49' W 003°57'1 1.1
2019-Feb-19 11:09N 47°50' W 003°57'0 2.5
2019-Feb-19 11:00N 47°51' W 003°56'  
2019-Feb-16 20:16N 47°53' W 003°54'  
Track history (hours):
 
Tides and Currents Weather Stations Pressure Air Temp Water Temp Dewpoint Dewpoint Depression Visibility Wind Speed Wind Dir Waves Ship Positions

Oceanographic research ship Thalia (France)

Detailed information on ship capabilities available from University of Delaware's Ocean Information Center.

Last reported at 2019-Feb-23 16:29 UTC. Time now 2019-Feb-23 16:41 UTC.
Position N 48°23' W 004°29'.

Length 25 m; beam 7 m.

Type: Fishing. MMSI: 227270000.

Date/timePositionNaut miles runAvg speedWind from/ knotsBaromVisibWave heightAir tempDewpointWater temp
2019-Feb-23 16:29N 48°23' W 004°29'0 0.0
2019-Feb-23 15:59N 48°23' W 004°29'0 0.0
2019-Feb-23 15:29N 48°23' W 004°29'0 0.0
2019-Feb-23 14:59N 48°23' W 004°29'0 0.0
2019-Feb-23 14:29N 48°23' W 004°29'0 0.0
2019-Feb-23 13:59N 48°23' W 004°29'0 0.0
2019-Feb-23 13:29N 48°23' W 004°29'0 0.0
2019-Feb-23 12:59N 48°23' W 004°29'0 0.0
2019-Feb-23 12:29N 48°23' W 004°29'0 0.0
2019-Feb-23 11:59N 48°23' W 004°29'0 0.0
2019-Feb-23 11:29N 48°23' W 004°29'0 0.0
2019-Feb-23 10:59N 48°23' W 004°29'0 0.0
2019-Feb-23 10:29N 48°23' W 004°29'0 0.0
2019-Feb-23 09:59N 48°23' W 004°29'0 0.0
2019-Feb-23 09:29N 48°23' W 004°29'0 0.0
2019-Feb-23 08:59N 48°23' W 004°29'0 0.0
2019-Feb-23 08:29N 48°23' W 004°29'0 0.0
2019-Feb-23 07:59N 48°23' W 004°29'0 0.0
2019-Feb-23 07:29N 48°23' W 004°29'0 0.0
2019-Feb-23 06:59N 48°23' W 004°29'0 0.0
2019-Feb-23 06:29N 48°23' W 004°29'0 0.0
2019-Feb-23 05:59N 48°23' W 004°29'0 0.0
2019-Feb-23 05:29N 48°23' W 004°29'0 0.0
2019-Feb-23 04:59N 48°23' W 004°29'0 0.0
2019-Feb-23 04:29N 48°23' W 004°29'0 0.0
2019-Feb-23 03:59N 48°23' W 004°29'0 0.0
2019-Feb-23 03:29N 48°23' W 004°29'0 0.0
2019-Feb-23 02:59N 48°23' W 004°29'0 0.0
2019-Feb-23 02:29N 48°23' W 004°29'0 0.0
2019-Feb-23 01:59N 48°23' W 004°29'0 0.0
2019-Feb-23 01:29N 48°23' W 004°29'0 0.0
2019-Feb-23 00:59N 48°23' W 004°29'0 0.0
2019-Feb-23 00:29N 48°23' W 004°29'0 0.0
2019-Feb-22 23:59N 48°23' W 004°29'0 0.0
2019-Feb-22 23:29N 48°23' W 004°29'0 0.0
2019-Feb-22 22:59N 48°23' W 004°29'0 0.0
2019-Feb-22 22:29N 48°23' W 004°29'0 0.0
2019-Feb-22 21:59N 48°23' W 004°29'0 0.0
2019-Feb-22 21:29N 48°23' W 004°29'0 0.0
2019-Feb-22 20:59N 48°23' W 004°29'0 0.0
2019-Feb-22 20:29N 48°23' W 004°29'0 0.0
2019-Feb-22 19:59N 48°23' W 004°29'0 0.0
2019-Feb-22 19:29N 48°23' W 004°29'0 0.0
2019-Feb-22 18:59N 48°23' W 004°29'0 0.0
2019-Feb-22 18:29N 48°23' W 004°29'0 0.0
2019-Feb-22 17:59N 48°23' W 004°29'0 0.0
2019-Feb-22 17:29N 48°23' W 004°29'0 0.0
2019-Feb-22 16:59N 48°23' W 004°29'0 0.0
2019-Feb-22 16:29N 48°23' W 004°29'0 0.0
2019-Feb-22 15:59N 48°23' W 004°29'0 0.0
2019-Feb-22 15:29N 48°23' W 004°29'0 0.0
2019-Feb-22 14:59N 48°23' W 004°29'0 0.0
2019-Feb-22 14:29N 48°23' W 004°29'0 0.0
2019-Feb-22 13:59N 48°23' W 004°29'0 0.4
2019-Feb-22 13:31N 48°23' W 004°29'4 8.8
2019-Feb-22 13:00N 48°20' W 004°34'2 4.4
2019-Feb-22 12:30N 48°18' W 004°35'1 1.3
2019-Feb-22 12:00N 48°17' W 004°36'4 8.6
2019-Feb-22 11:30N 48°18' W 004°42'4 8.8
2019-Feb-22 11:00N 48°20' W 004°48'4 7.7
2019-Feb-22 10:31N 48°23' W 004°51'1 1.2
2019-Feb-22 10:01N 48°23' W 004°50'3 5.8
2019-Feb-22 09:31N 48°21' W 004°49'3 6.3
2019-Feb-22 09:00N 48°19' W 004°45'511.0
2019-Feb-22 08:31N 48°20' W 004°37'611.5
2019-Feb-22 08:00N 48°20' W 004°28'1 1.3
2019-Feb-22 07:30N 48°20' W 004°27'3 5.4
2019-Feb-22 07:00N 48°22' W 004°29'1 1.2
2019-Feb-22 06:30N 48°23' W 004°29'0 0.0
2019-Feb-22 06:00N 48°23' W 004°29'0 0.0
2019-Feb-22 05:30N 48°23' W 004°29'0 0.0
2019-Feb-22 05:00N 48°23' W 004°29'0 0.0
2019-Feb-22 04:30N 48°23' W 004°29'0 0.0
2019-Feb-22 04:00N 48°23' W 004°29'0 0.0
2019-Feb-22 03:30N 48°23' W 004°29'0 0.0
2019-Feb-22 03:00N 48°23' W 004°29'0 0.0
2019-Feb-22 02:30N 48°23' W 004°29'0 0.0
2019-Feb-22 02:00N 48°23' W 004°29'0 0.0
2019-Feb-22 01:30N 48°23' W 004°29'0 0.0
2019-Feb-22 01:00N 48°23' W 004°29'0 0.0
2019-Feb-22 00:30N 48°23' W 004°29'0 0.0
2019-Feb-22 00:00N 48°23' W 004°29'0 0.0
2019-Feb-21 23:30N 48°23' W 004°29'0 0.0
2019-Feb-21 23:00N 48°23' W 004°29'0 0.0
2019-Feb-21 22:30N 48°23' W 004°29'0 0.0
2019-Feb-21 22:00N 48°23' W 004°29'0 0.0
2019-Feb-21 21:30N 48°23' W 004°29'0 0.0
2019-Feb-21 21:00N 48°23' W 004°29'0 0.0
2019-Feb-21 20:30N 48°23' W 004°29'0 0.0
2019-Feb-21 20:00N 48°23' W 004°29'0 0.0
2019-Feb-21 19:30N 48°23' W 004°29'0 0.0
2019-Feb-21 19:00N 48°23' W 004°29'0 0.0
2019-Feb-21 18:30N 48°23' W 004°29'0 0.0
2019-Feb-21 18:00N 48°23' W 004°29'0 0.0
2019-Feb-21 17:30N 48°23' W 004°29'1 1.1
2019-Feb-21 17:01N 48°22' W 004°29'2 4.4
2019-Feb-21 16:30N 48°22' W 004°26'1 2.5
2019-Feb-21 16:01N 48°21' W 004°27'2 5.0
2019-Feb-21 15:31N 48°19' W 004°25'2 4.2
2019-Feb-21 15:01N 48°19' W 004°22'2 4.7
2019-Feb-21 14:31N 48°19' W 004°26'510.8
2019-Feb-21 14:01N 48°20' W 004°33'611.7
2019-Feb-21 13:30N 48°18' W 004°41'510.0
2019-Feb-21 13:00N 48°17' W 004°48'4 7.3
2019-Feb-21 12:31N 48°16' W 004°54'0 0.0
2019-Feb-21 12:01N 48°16' W 004°54'0 0.2
2019-Feb-21 11:30N 48°15' W 004°54'1 1.5
2019-Feb-21 11:00N 48°15' W 004°53'5 9.7
2019-Feb-21 10:30N 48°13' W 004°46'510.0
2019-Feb-21 10:00N 48°11' W 004°39'510.0
2019-Feb-21 09:30N 48°10' W 004°32'3 6.8
2019-Feb-21 09:01N 48°13' W 004°30'1 1.4
2019-Feb-21 08:30N 48°13' W 004°29'5 9.9
2019-Feb-21 08:00N 48°09' W 004°23'2 4.8
2019-Feb-21 07:30N 48°08' W 004°20'1 2.9
2019-Feb-21 07:00N 48°09' W 004°18'0 0.6
2019-Feb-21 06:31N 48°09' W 004°18'1 1.2
2019-Feb-21 06:00N 48°09' W 004°19'0 0.6
2019-Feb-21 05:30N 48°09' W 004°19'0 0.3
2019-Feb-21 05:00N 48°08' W 004°18'2 4.2
2019-Feb-21 04:30N 48°08' W 004°21'3 5.3
2019-Feb-21 04:00N 48°08' W 004°25'3 5.5
2019-Feb-21 03:31N 48°07' W 004°29'3 6.3
2019-Feb-21 03:01N 48°07' W 004°34'3 6.9
2019-Feb-21 02:30N 48°06' W 004°39'3 6.6
2019-Feb-21 02:01N 48°05' W 004°44'4 8.2
2019-Feb-21 01:30N 48°01' W 004°45'611.2
2019-Feb-21 01:01N 47°57' W 004°39'510.4
2019-Feb-21 00:30N 47°53' W 004°34'510.4
2019-Feb-20 23:58N 47°49' W 004°28'1110.4
2019-Feb-20 22:58N 47°43' W 004°15'10 9.9
2019-Feb-20 21:58N 47°38' W 004°02'710.2
2019-Feb-20 21:20N 47°39' W 003°52'4 9.9
2019-Feb-20 20:55N 47°39' W 003°46'4 9.7
2019-Feb-20 20:31N 47°40' W 003°41'510.0
2019-Feb-20 20:01N 47°40' W 003°33'510.6
2019-Feb-20 19:30N 47°40' W 003°25'510.3
2019-Feb-20 19:01N 47°39' W 003°18'1 1.2
2019-Feb-20 18:31N 47°39' W 003°17'0 0.4
2019-Feb-20 18:01N 47°39' W 003°17'5 9.2
2019-Feb-20 17:30N 47°34' W 003°15'5 9.8
2019-Feb-20 17:01N 47°30' W 003°13'5 9.7
2019-Feb-20 16:31N 47°25' W 003°11'5 9.9
2019-Feb-20 16:01N 47°20' W 003°08'0 0.9
2019-Feb-20 15:31N 47°20' W 003°08'4 7.6
2019-Feb-20 15:01N 47°23' W 003°06'5 9.5
2019-Feb-20 14:30N 47°28' W 003°03'1 2.3
2019-Feb-20 14:01N 47°29' W 003°03'2 3.7
2019-Feb-20 13:30N 47°30' W 003°02'4 8.0
2019-Feb-20 13:01N 47°32' W 002°56'0 0.6
2019-Feb-20 12:31N 47°31' W 002°56'4 7.7
2019-Feb-20 12:01N 47°28' W 002°54'4 7.6
2019-Feb-20 11:30N 47°24' W 002°51'0 0.1
2019-Feb-20 11:00N 47°24' W 002°51'1 2.0
2019-Feb-20 10:31N 47°24' W 002°49'3 5.3
2019-Feb-20 10:01N 47°24' W 002°45'3 6.4
2019-Feb-20 09:30N 47°23' W 002°41'3 5.2
2019-Feb-20 08:55N 47°22' W 002°36'1 1.5
2019-Feb-20 08:30N 47°23' W 002°37'2 4.3
2019-Feb-20 08:01N 47°24' W 002°35'4 7.9
2019-Feb-20 07:30N 47°28' W 002°33'0 0.8
2019-Feb-20 07:00N 47°29' W 002°33'0 0.9
2019-Feb-20 06:31N 47°28' W 002°34'2 4.3
2019-Feb-20 06:00N 47°27' W 002°36'2 4.9
2019-Feb-20 05:31N 47°25' W 002°39'3 5.5
2019-Feb-20 05:00N 47°23' W 002°42'3 5.8
2019-Feb-20 04:30N 47°21' W 002°44'3 5.6
2019-Feb-20 03:59N 47°19' W 002°47'6 6.1
2019-Feb-20 03:01N 47°19' W 002°56'1 2.9
2019-Feb-20 02:31N 47°19' W 002°58'2 3.5
2019-Feb-20 02:00N 47°20' W 002°60'3 5.2
2019-Feb-20 01:30N 47°22' W 003°03'3 5.2
2019-Feb-20 01:00N 47°23' W 003°06'3 5.1
2019-Feb-20 00:31N 47°24' W 003°10'2 4.8
2019-Feb-20 00:01N 47°25' W 003°13'2 4.3
2019-Feb-19 23:30N 47°26' W 003°15'2 3.9
2019-Feb-19 23:01N 47°27' W 003°18'2 4.2
2019-Feb-19 22:31N 47°29' W 003°21'2 3.8
2019-Feb-19 22:00N 47°30' W 003°23'2 4.2
2019-Feb-19 21:30N 47°31' W 003°25'2 4.3
2019-Feb-19 21:01N 47°32' W 003°28'2 4.1
2019-Feb-19 20:30N 47°33' W 003°30'2 4.1
2019-Feb-19 20:00N 47°35' W 003°33'2 4.4
2019-Feb-19 19:30N 47°36' W 003°36'2 4.5
2019-Feb-19 19:01N 47°37' W 003°38'2 4.4
2019-Feb-19 18:30N 47°39' W 003°41'2 4.5
2019-Feb-19 18:00N 47°40' W 003°43'2 4.6
2019-Feb-19 17:31N 47°41' W 003°46'3 5.6
2019-Feb-19 17:00N 47°43' W 003°50'6 5.5
2019-Feb-19 15:58N 47°44' W 003°58'1 2.6
2019-Feb-19 15:29N 47°44' W 003°60'1 1.0
2019-Feb-19 14:58N 47°44' W 004°01'3 6.4
2019-Feb-19 14:29N 47°46' W 003°57'3 6.3
2019-Feb-19 14:01N 47°47' W 003°53'0 0.4
2019-Feb-19 13:30N 47°48' W 003°53'3 4.6
2019-Feb-19 12:45N 47°49' W 003°58'0 0.6
2019-Feb-19 12:30N 47°49' W 003°57'1 1.0
2019-Feb-19 11:59N 47°49' W 003°57'1 1.1
2019-Feb-19 11:09N 47°50' W 003°57'0 2.5
2019-Feb-19 11:00N 47°51' W 003°56'  
2019-Feb-16 20:16N 47°53' W 003°54'  

Dump ship's entire track history